Time;durP1;ratioP1;P1;durP2;ratioP2;P2;SDS_P1;SDS_P2;PMS_P1;PMS_P2;Temp;Humidity;BMP_temperature;BMP_pressure;BME280_temperature;BME280_humidity;BME280_pressure;Samples;Min_cycle;Max_cycle;Signal;HPM_P1;HPM_P2
2021/01/06 00:02:10;;;;;;;22.67;15.38;;;;;;;;;;5008285;28;20471;-92
2021/01/06 00:04:36;;;;;;;23.83;16.00;;;;;;;;;;5019753;28;20226;-92
2021/01/06 00:07:02;;;;;;;24.75;16.38;;;;;;;;;;4997611;28;20214;-91
2021/01/06 00:09:28;;;;;;;27.73;18.38;;;;;;;;;;5002090;28;20633;-92
2021/01/06 00:11:54;;;;;;;30.05;18.42;;;;;;;;;;4997229;28;20996;-92
2021/01/06 00:14:20;;;;;;;23.50;17.20;;;;;;;;;;4999127;28;20208;-92
2021/01/06 00:16:52;;;;;;;24.30;16.30;;;;;;;;;;4996158;28;20240;-93
2021/01/06 00:19:18;;;;;;;25.48;17.65;;;;;;;;;;5000069;28;20215;-91
2021/01/06 00:21:44;;;;;;;27.35;18.10;;;;;;;;;;5003580;28;20206;-92
2021/01/06 00:24:17;;;;;;;40.15;21.92;;;;;;;;;;5001072;28;20214;-93
2021/01/06 00:26:44;;;;;;;32.50;19.35;;;;;;;;;;5003040;28;20275;-93
2021/01/06 00:29:11;;;;;;;29.35;18.48;;;;;;;;;;5001372;28;20213;-93
2021/01/06 00:31:38;;;;;;;31.05;18.65;;;;;;;;;;5011575;28;20209;-92
2021/01/06 00:34:05;;;;;;;26.02;18.42;;;;;;;;;;5004792;28;20218;-93
2021/01/06 00:36:31;;;;;;;29.00;17.40;;;;;;;;;;5002992;28;20226;-93
2021/01/06 00:38:57;;;;;;;28.55;17.80;;;;;;;;;;4999426;28;20868;-93
2021/01/06 00:41:29;;;;;;;24.38;17.15;;;;;;;;;;5011878;28;20724;-93
2021/01/06 00:43:55;;;;;;;25.63;16.25;;;;;;;;;;5020358;28;20200;-92
2021/01/06 00:46:22;;;;;;;24.77;17.23;;;;;;;;;;4999316;28;20205;-93
2021/01/06 00:48:48;;;;;;;27.05;17.63;;;;;;;;;;5001980;28;20213;-92
2021/01/06 00:51:15;;;;;;;21.92;15.02;;;;;;;;;;4998058;28;20224;-93
2021/01/06 00:53:41;;;;;;;20.50;15.48;;;;;;;;;;5001564;28;20232;-93
2021/01/06 00:56:07;;;;;;;22.83;16.30;;;;;;;;;;4997719;28;20225;-93
2021/01/06 00:58:33;;;;;;;20.80;15.82;;;;;;;;;;5002678;28;20202;-93
2021/01/06 01:00:59;;;;;;;30.73;16.13;;;;;;;;;;5008621;28;20209;-91
2021/01/06 01:03:25;;;;;;;26.33;16.55;;;;;;;;;;5002918;28;20273;-93
2021/01/06 01:05:51;;;;;;;23.95;15.88;;;;;;;;;;5001471;28;20241;-92
2021/01/06 01:08:18;;;;;;;23.10;16.17;;;;;;;;;;4999642;28;20205;-93
2021/01/06 01:10:45;;;;;;;17.30;13.80;;;;;;;;;;5014822;28;20208;-92
2021/01/06 01:13:13;;;;;;;22.58;14.90;;;;;;;;;;5009573;28;20599;-91
2021/01/06 01:15:39;;;;;;;17.27;13.38;;;;;;;;;;5005721;28;20291;-92
2021/01/06 01:18:06;;;;;;;17.15;14.15;;;;;;;;;;5001751;28;20330;-91
2021/01/06 01:20:32;;;;;;;19.90;13.90;;;;;;;;;;5012448;28;20295;-93
2021/01/06 01:22:58;;;;;;;19.35;14.60;;;;;;;;;;5028551;28;20220;-92
2021/01/06 01:25:26;;;;;;;21.60;16.48;;;;;;;;;;5005132;28;20210;-94
2021/01/06 01:27:54;;;;;;;28.05;18.75;;;;;;;;;;5007147;28;20222;-93
2021/01/06 01:30:22;;;;;;;27.38;19.58;;;;;;;;;;5003364;28;20265;-93
2021/01/06 01:32:48;;;;;;;23.42;17.15;;;;;;;;;;5004781;28;20211;-92
2021/01/06 01:35:15;;;;;;;25.65;17.90;;;;;;;;;;5002810;28;20781;-94
2021/01/06 01:37:41;;;;;;;24.17;15.18;;;;;;;;;;5006645;28;20213;-93
2021/01/06 01:40:08;;;;;;;18.80;14.80;;;;;;;;;;5014069;28;20282;-92
2021/01/06 01:42:35;;;;;;;24.17;16.05;;;;;;;;;;5006586;28;20942;-92
2021/01/06 01:45:03;;;;;;;22.27;15.63;;;;;;;;;;5004719;28;20206;-92
2021/01/06 01:47:34;;;;;;;20.20;14.93;;;;;;;;;;5004509;28;20202;-93
2021/01/06 01:50:00;;;;;;;21.80;14.38;;;;;;;;;;5019552;28;20229;-91
2021/01/06 01:52:29;;;;;;;19.65;14.70;;;;;;;;;;5006891;28;20229;-91
2021/01/06 01:54:56;;;;;;;21.88;15.73;;;;;;;;;;5006244;28;20222;-91
2021/01/06 01:57:26;;;;;;;22.10;16.40;;;;;;;;;;5003833;28;20230;-91
2021/01/06 01:59:54;;;;;;;26.17;18.20;;;;;;;;;;5021386;28;20216;-91
2021/01/06 02:02:25;;;;;;;28.15;19.70;;;;;;;;;;5017627;28;20218;-94
2021/01/06 02:04:53;;;;;;;36.22;20.10;;;;;;;;;;4986660;28;20207;-92
2021/01/06 02:07:21;;;;;;;26.98;18.25;;;;;;;;;;4986710;28;20227;-93
2021/01/06 02:09:52;;;;;;;25.23;18.35;;;;;;;;;;5003407;28;20869;-93
2021/01/06 02:12:29;;;;;;;28.23;18.33;;;;;;;;;;5005382;28;20216;-93
2021/01/06 02:15:00;;;;;;;24.25;17.35;;;;;;;;;;5002620;28;20215;-92
2021/01/06 02:17:27;;;;;;;22.67;16.90;;;;;;;;;;5004139;28;20660;-95
2021/01/06 02:19:53;;;;;;;20.83;16.50;;;;;;;;;;5012295;28;20232;-93
2021/01/06 02:22:23;;;;;;;20.98;15.23;;;;;;;;;;5012905;28;20206;-92
2021/01/06 02:24:50;;;;;;;22.90;15.90;;;;;;;;;;5001695;28;20218;-93
2021/01/06 02:27:16;;;;;;;24.33;16.73;;;;;;;;;;5005279;28;20257;-93
2021/01/06 02:29:42;;;;;;;23.92;17.05;;;;;;;;;;5016590;28;20221;-93
2021/01/06 02:32:08;;;;;;;29.70;19.45;;;;;;;;;;5005122;28;20205;-92
2021/01/06 02:34:35;;;;;;;25.77;15.93;;;;;;;;;;5002725;28;20269;-93
2021/01/06 02:37:01;;;;;;;20.65;16.05;;;;;;;;;;5004503;28;20225;-93
2021/01/06 02:39:28;;;;;;;27.05;16.85;;;;;;;;;;5024578;28;20216;-92
2021/01/06 02:41:54;;;;;;;26.08;18.05;;;;;;;;;;5005300;28;20666;-93
2021/01/06 02:44:21;;;;;;;27.88;17.75;;;;;;;;;;5005374;28;20203;-92
2021/01/06 02:46:47;;;;;;;25.90;17.75;;;;;;;;;;5003770;28;20215;-91
2021/01/06 02:49:13;;;;;;;26.15;17.85;;;;;;;;;;5025298;28;20228;-92
2021/01/06 02:51:42;;;;;;;23.08;17.13;;;;;;;;;;5018211;28;20199;-93
2021/01/06 02:54:10;;;;;;;26.30;17.90;;;;;;;;;;5005574;28;20218;-91
2021/01/06 02:56:38;;;;;;;25.00;18.35;;;;;;;;;;5006540;28;20240;-92
2021/01/06 02:59:05;;;;;;;25.13;17.13;;;;;;;;;;5002972;28;20214;-92
2021/01/06 03:01:34;;;;;;;24.20;18.02;;;;;;;;;;5004814;28;20237;-92
2021/01/06 03:04:03;;;;;;;29.45;18.80;;;;;;;;;;5002345;28;20206;-94
2021/01/06 03:06:45;;;;;;;34.55;20.40;;;;;;;;;;5007554;28;20234;-95
2021/01/06 03:09:22;;;;;;;37.05;21.42;;;;;;;;;;5008071;28;20722;-93
2021/01/06 03:11:50;;;;;;;35.45;21.48;;;;;;;;;;5004553;28;20210;-93
2021/01/06 03:14:16;;;;;;;34.88;21.45;;;;;;;;;;5002108;28;20210;-92
2021/01/06 03:16:42;;;;;;;34.85;22.13;;;;;;;;;;5011039;28;20241;-91
2021/01/06 03:19:09;;;;;;;32.65;21.92;;;;;;;;;;5014911;28;20225;-91
2021/01/06 03:21:35;;;;;;;32.45;20.17;;;;;;;;;;5004756;28;20209;-92
2021/01/06 03:24:02;;;;;;;29.45;20.60;;;;;;;;;;5004628;28;20218;-92
2021/01/06 03:26:29;;;;;;;30.00;21.30;;;;;;;;;;5010218;28;20318;-92
2021/01/06 03:28:57;;;;;;;36.35;20.50;;;;;;;;;;5024215;28;20209;-92
2021/01/06 03:31:27;;;;;;;27.27;20.20;;;;;;;;;;5006632;28;20216;-91
2021/01/06 03:33:56;;;;;;;25.05;19.35;;;;;;;;;;5003796;28;20202;-92
2021/01/06 03:36:24;;;;;;;27.20;19.27;;;;;;;;;;4999923;28;20230;-92
2021/01/06 03:38:52;;;;;;;24.00;17.65;;;;;;;;;;5002843;28;20257;-91
2021/01/06 03:41:18;;;;;;;22.00;15.82;;;;;;;;;;4999010;28;20225;-92
2021/01/06 03:43:46;;;;;;;23.10;16.50;;;;;;;;;;5002744;28;20203;-93
2021/01/06 03:46:18;;;;;;;20.67;15.50;;;;;;;;;;5008581;28;20214;-93
2021/01/06 03:48:47;;;;;;;19.90;15.07;;;;;;;;;;4981482;28;20213;-94
2021/01/06 03:51:22;;;;;;;22.60;16.80;;;;;;;;;;4982015;28;20208;-94
2021/01/06 03:53:49;;;;;;;22.42;15.57;;;;;;;;;;4999818;28;20237;-92
2021/01/06 03:56:20;;;;;;;19.45;14.40;;;;;;;;;;5016349;28;20237;-91
2021/01/06 03:58:50;;;;;;;18.33;13.77;;;;;;;;;;5005303;28;20210;-94
2021/01/06 04:01:33;;;;;;;20.27;15.25;;;;;;;;;;5006287;28;20206;-93
2021/01/06 04:04:06;;;;;;;27.30;17.85;;;;;;;;;;5012314;28;20214;-93
2021/01/06 04:06:35;;;;;;;25.85;17.88;;;;;;;;;;5028137;28;20275;-93
2021/01/06 04:09:03;;;;;;;21.85;16.38;;;;;;;;;;5012072;28;20225;-94
2021/01/06 04:11:38;;;;;;;22.35;16.65;;;;;;;;;;5003854;28;20298;-95
2021/01/06 04:14:04;;;;;;;27.88;20.88;;;;;;;;;;5001550;28;20234;-92
2021/01/06 04:16:32;;;;;;;20.05;15.40;;;;;;;;;;5002218;28;20780;-91
2021/01/06 04:19:06;;;;;;;21.50;16.30;;;;;;;;;;5002726;28;20293;-94
2021/01/06 04:21:33;;;;;;;23.38;15.05;;;;;;;;;;4999286;28;20205;-92
2021/01/06 04:23:59;;;;;;;23.60;15.35;;;;;;;;;;5002998;28;20207;-92
2021/01/06 04:26:25;;;;;;;22.10;15.32;;;;;;;;;;5006251;28;20201;-92
2021/01/06 04:28:51;;;;;;;20.52;15.00;;;;;;;;;;5003682;28;20208;-92
2021/01/06 04:31:19;;;;;;;24.05;15.88;;;;;;;;;;4999515;28;20207;-92
2021/01/06 04:33:46;;;;;;;23.50;15.38;;;;;;;;;;5003504;28;20205;-92
2021/01/06 04:36:14;;;;;;;18.98;14.25;;;;;;;;;;5014862;28;20358;-92
2021/01/06 04:38:44;;;;;;;25.60;16.40;;;;;;;;;;5003824;28;20199;-92
2021/01/06 04:41:22;;;;;;;21.17;15.30;;;;;;;;;;4999186;28;20225;-93
2021/01/06 04:43:53;;;;;;;24.95;19.33;;;;;;;;;;4990916;28;20221;-92
2021/01/06 04:46:29;;;;;;;29.42;21.15;;;;;;;;;;5021345;28;20210;-93
2021/01/06 04:49:12;;;;;;;29.25;18.95;;;;;;;;;;5001131;28;20214;-94
2021/01/06 04:51:44;;;;;;;24.92;18.77;;;;;;;;;;5003622;28;20202;-92
2021/01/06 04:54:21;;;;;;;22.60;17.15;;;;;;;;;;5001587;28;20207;-93
2021/01/06 04:57:05;;;;;;;25.15;18.67;;;;;;;;;;5002255;28;20227;-93
2021/01/06 04:59:50;;;;;;;20.63;15.35;;;;;;;;;;4986888;28;20209;-92
2021/01/06 05:02:21;;;;;;;18.02;13.55;;;;;;;;;;5002410;28;20215;-92
2021/01/06 05:04:53;;;;;;;21.33;15.23;;;;;;;;;;5013891;28;20210;-93
2021/01/06 05:07:28;;;;;;;24.45;16.40;;;;;;;;;;5006499;28;20202;-91
2021/01/06 05:09:57;;;;;;;18.88;14.85;;;;;;;;;;4996487;28;20203;-92
2021/01/06 05:12:25;;;;;;;17.00;13.20;;;;;;;;;;5003163;28;20218;-91
2021/01/06 05:14:53;;;;;;;16.98;13.32;;;;;;;;;;5012299;28;20867;-91
2021/01/06 05:17:19;;;;;;;19.52;14.40;;;;;;;;;;5002605;28;20230;-93
2021/01/06 05:19:47;;;;;;;20.10;15.93;;;;;;;;;;4999886;28;20646;-93
2021/01/06 05:22:18;;;;;;;22.33;15.35;;;;;;;;;;5005874;28;20190;-93
2021/01/06 05:24:45;;;;;;;24.83;15.23;;;;;;;;;;5009067;28;20202;-92
2021/01/06 05:27:20;;;;;;;30.58;19.05;;;;;;;;;;4999383;28;20233;-92
2021/01/06 05:29:47;;;;;;;29.05;18.50;;;;;;;;;;5002661;28;20243;-93
2021/01/06 05:32:16;;;;;;;24.92;15.60;;;;;;;;;;4998499;28;20203;-93
2021/01/06 05:34:42;;;;;;;21.42;14.52;;;;;;;;;;5001880;28;20282;-93
2021/01/06 05:37:18;;;;;;;19.70;13.98;;;;;;;;;;4999144;28;20294;-92
2021/01/06 05:39:45;;;;;;;24.15;15.27;;;;;;;;;;5008899;28;20202;-92
2021/01/06 05:42:18;;;;;;;20.42;14.40;;;;;;;;;;5005945;28;20220;-94
2021/01/06 05:44:50;;;;;;;23.88;15.18;;;;;;;;;;5006744;28;20228;-93
2021/01/06 05:47:19;;;;;;;32.60;22.80;;;;;;;;;;5007861;28;20234;-92
2021/01/06 05:49:46;;;;;;;35.42;23.27;;;;;;;;;;5007835;28;20231;-92
2021/01/06 05:52:14;;;;;;;41.75;25.88;;;;;;;;;;5007997;28;20260;-93
2021/01/06 05:54:41;;;;;;;44.75;29.00;;;;;;;;;;5000266;28;20284;-93
2021/01/06 05:57:16;;;;;;;44.42;28.52;;;;;;;;;;4994021;28;20231;-93
2021/01/06 06:00:00;;;;;;;33.70;23.10;;;;;;;;;;4993939;28;20207;-91
2021/01/06 06:02:32;;;;;;;34.15;24.45;;;;;;;;;;5009561;28;20201;-90
2021/01/06 06:05:19;;;;;;;47.03;28.33;;;;;;;;;;5002788;28;20209;-90
2021/01/06 06:07:57;;;;;;;48.35;33.47;;;;;;;;;;4999493;28;20229;-92
2021/01/06 06:10:33;;;;;;;54.22;34.08;;;;;;;;;;4997638;28;20265;-92
2021/01/06 06:13:08;;;;;;;46.83;32.55;;;;;;;;;;5019392;28;20201;-92
2021/01/06 06:15:42;;;;;;;46.65;31.38;;;;;;;;;;5013719;28;20213;-91
2021/01/06 06:18:27;;;;;;;43.25;31.05;;;;;;;;;;5005321;28;20230;-91
2021/01/06 06:20:56;;;;;;;38.47;28.40;;;;;;;;;;5001875;28;20202;-91
2021/01/06 06:23:44;;;;;;;42.05;28.52;;;;;;;;;;5004650;28;20202;-93
2021/01/06 06:26:14;;;;;;;37.63;27.33;;;;;;;;;;5002283;28;20219;-93
2021/01/06 06:28:42;;;;;;;33.25;24.50;;;;;;;;;;5005710;28;20229;-91
2021/01/06 06:31:16;;;;;;;33.45;23.92;;;;;;;;;;5009219;28;20206;-93
2021/01/06 06:33:43;;;;;;;37.17;24.40;;;;;;;;;;4984093;28;20207;-95
2021/01/06 06:36:10;;;;;;;42.13;28.52;;;;;;;;;;4985739;28;20227;-92
2021/01/06 06:38:39;;;;;;;42.33;28.55;;;;;;;;;;5001506;28;20230;-92
2021/01/06 06:41:07;;;;;;;45.47;29.90;;;;;;;;;;5013817;28;20260;-93
2021/01/06 06:43:35;;;;;;;49.28;31.98;;;;;;;;;;5008670;28;20206;-92
2021/01/06 06:46:16;;;;;;;44.25;29.85;;;;;;;;;;5003210;28;20235;-92
2021/01/06 06:48:48;;;;;;;46.13;28.42;;;;;;;;;;4999455;28;20223;-92
2021/01/06 06:51:17;;;;;;;43.05;28.85;;;;;;;;;;5014077;28;20205;-91
2021/01/06 06:53:46;;;;;;;37.72;27.88;;;;;;;;;;5010176;28;20234;-90
2021/01/06 06:56:19;;;;;;;33.80;24.60;;;;;;;;;;5003633;28;20323;-92
2021/01/06 06:58:48;;;;;;;38.80;26.27;;;;;;;;;;5000960;28;20218;-92
2021/01/06 07:01:17;;;;;;;26.27;19.92;;;;;;;;;;5017428;28;20685;-92
2021/01/06 07:03:45;;;;;;;20.98;15.80;;;;;;;;;;5023649;28;20206;-92
2021/01/06 07:06:12;;;;;;;20.38;14.38;;;;;;;;;;5004091;28;20209;-93
2021/01/06 07:08:39;;;;;;;18.48;13.70;;;;;;;;;;5004472;28;20204;-94
2021/01/06 07:11:07;;;;;;;19.48;14.63;;;;;;;;;;5002154;28;20210;-94
2021/01/06 07:13:34;;;;;;;9.02;7.03;;;;;;;;;;4985690;28;20278;-92
2021/01/06 07:16:02;;;;;;;3.60;3.30;;;;;;;;;;4995118;28;20207;-96
2021/01/06 07:18:46;;;;;;;3.37;2.90;;;;;;;;;;5008652;28;20227;-95
2021/01/06 07:21:22;;;;;;;3.23;2.77;;;;;;;;;;5006528;28;20472;-94
2021/01/06 07:23:50;;;;;;;4.63;2.30;;;;;;;;;;5009558;28;20528;-95
2021/01/06 07:26:19;;;;;;;2.50;2.30;;;;;;;;;;5007084;28;20481;-96
2021/01/06 07:28:45;;;;;;;2.60;2.40;;;;;;;;;;5010457;28;20525;-92
2021/01/06 07:31:13;;;;;;;3.53;2.60;;;;;;;;;;5025940;28;20452;-95
2021/01/06 07:33:45;;;;;;;2.80;2.50;;;;;;;;;;5009885;28;20453;-96
2021/01/06 07:36:13;;;;;;;3.53;2.37;;;;;;;;;;5006068;28;20518;-91
2021/01/06 07:38:39;;;;;;;4.03;2.10;;;;;;;;;;5008458;28;20484;-95
2021/01/06 07:41:23;;;;;;;2.60;2.33;;;;;;;;;;5019938;28;20459;-93
2021/01/06 07:43:59;;;;;;;2.50;2.30;;;;;;;;;;5001861;28;20457;-91
2021/01/06 07:46:27;;;;;;;2.50;2.30;;;;;;;;;;5008488;28;20457;-94
2021/01/06 07:49:10;;;;;;;2.50;2.30;;;;;;;;;;5002017;28;20469;-94
2021/01/06 07:51:41;;;;;;;2.77;2.27;;;;;;;;;;5005279;28;21236;-92
2021/01/06 07:54:15;;;;;;;9.20;7.30;;;;;;;;;;5001680;28;20456;-93
2021/01/06 07:56:44;;;;;;;10.10;7.33;;;;;;;;;;5003049;28;20488;-94
2021/01/06 07:59:17;;;;;;;14.07;10.33;;;;;;;;;;5009956;28;20550;-95
2021/01/06 08:01:48;;;;;;;12.00;9.30;;;;;;;;;;5005522;28;21126;-96
2021/01/06 08:04:20;;;;;;;11.40;9.90;;;;;;;;;;5003210;28;20452;-93
2021/01/06 08:06:51;;;;;;;15.17;12.53;;;;;;;;;;5003452;28;20467;-95
2021/01/06 08:12:26;;;;;;;10.97;8.83;;;;;;;;;;4997006;28;20470;-93
2021/01/06 08:15:08;;;;;;;2.20;2.10;;;;;;;;;;5002901;28;20464;-93
2021/01/06 08:17:41;;;;;;;2.60;2.37;;;;;;;;;;5001227;28;20504;-94
2021/01/06 08:20:10;;;;;;;2.53;2.40;;;;;;;;;;5025771;28;20439;-96
2021/01/06 08:22:40;;;;;;;2.50;2.30;;;;;;;;;;5016695;23;20501;-96
2021/01/06 08:25:13;;;;;;;2.50;2.30;;;;;;;;;;4984159;28;20513;-95
2021/01/06 08:27:39;;;;;;;3.80;2.20;;;;;;;;;;4992178;28;20465;-92
2021/01/06 08:30:10;;;;;;;2.77;2.57;;;;;;;;;;5007695;28;20967;-95
2021/01/06 08:32:36;;;;;;;2.40;2.20;;;;;;;;;;5003623;28;20608;-96
2021/01/06 08:35:04;;;;;;;3.50;2.63;;;;;;;;;;5154555;23;20454;-94
2021/01/06 08:37:33;;;;;;;2.37;2.17;;;;;;;;;;5084835;23;20531;-96
2021/01/06 08:40:02;;;;;;;2.50;2.20;;;;;;;;;;5020456;23;20580;-96
2021/01/06 08:42:40;;;;;;;2.83;2.10;;;;;;;;;;5011247;28;20504;-95
2021/01/06 08:45:07;;;;;;;2.20;2.00;;;;;;;;;;4980536;28;20457;-96
2021/01/06 08:50:34;;;;;;;2.13;2.03;;;;;;;;;;5012031;28;20452;-96
2021/01/06 08:53:01;;;;;;;2.60;2.40;;;;;;;;;;5008175;28;20517;-95
2021/01/06 08:55:30;;;;;;;2.10;2.00;;;;;;;;;;5001482;28;20441;-96
2021/01/06 08:58:00;;;;;;;3.23;2.17;;;;;;;;;;5007812;28;20520;-96
2021/01/06 09:00:28;;;;;;;3.70;2.20;;;;;;;;;;5008247;28;20982;-96
2021/01/06 09:02:56;;;;;;;2.40;2.20;;;;;;;;;;4997412;28;20440;-96
2021/01/06 09:05:38;;;;;;;3.40;1.80;;;;;;;;;;5001420;28;21641;-94
2021/01/06 09:08:09;;;;;;;1.63;1.53;;;;;;;;;;5021205;28;20464;-92
2021/01/06 09:10:46;;;;;;;2.00;1.80;;;;;;;;;;5023551;28;20464;-95
2021/01/06 09:13:14;;;;;;;2.10;1.90;;;;;;;;;;5005856;28;20504;-92
2021/01/06 09:15:46;;;;;;;1.70;1.60;;;;;;;;;;5003298;28;20465;-96
2021/01/06 09:18:25;;;;;;;2.00;1.90;;;;;;;;;;5012723;28;20485;-96
2021/01/06 09:23:30;;;;;;;1.70;1.60;;;;;;;;;;4996740;26;20484;-94
2021/01/06 09:25:56;;;;;;;2.83;1.60;;;;;;;;;;5027741;28;20469;-94
2021/01/06 09:28:22;;;;;;;1.70;1.60;;;;;;;;;;5028460;28;20444;-96
2021/01/06 09:30:49;;;;;;;2.00;1.90;;;;;;;;;;5025829;28;20448;-96
2021/01/06 09:33:20;;;;;;;1.97;1.77;;;;;;;;;;5027979;28;20475;-96
2021/01/06 09:35:46;;;;;;;2.50;1.90;;;;;;;;;;5034032;28;20461;-96
2021/01/06 09:38:35;;;;;;;1.70;1.60;;;;;;;;;;5032636;28;20492;-96
2021/01/06 09:41:07;;;;;;;5.07;2.00;;;;;;;;;;5009807;28;20447;-93
2021/01/06 09:43:36;;;;;;;1.80;1.70;;;;;;;;;;5013212;28;20525;-95
2021/01/06 09:46:14;;;;;;;1.73;1.63;;;;;;;;;;5033238;28;20448;-96
2021/01/06 09:48:41;;;;;;;2.60;1.50;;;;;;;;;;5030286;28;20463;-96
2021/01/06 09:51:13;;;;;;;2.03;1.70;;;;;;;;;;5032184;28;20507;-96
2021/01/06 09:53:39;;;;;;;2.70;1.50;;;;;;;;;;5014502;28;20450;-95
2021/01/06 09:56:07;;;;;;;2.50;1.77;;;;;;;;;;5031048;28;20471;-96
2021/01/06 09:58:35;;;;;;;1.80;1.70;;;;;;;;;;5031852;28;20474;-96
2021/01/06 10:01:04;;;;;;;1.60;1.50;;;;;;;;;;5027514;28;20458;-96
2021/01/06 10:03:31;;;;;;;2.03;1.70;;;;;;;;;;5028664;28;20458;-94
2021/01/06 10:06:10;;;;;;;2.10;1.90;;;;;;;;;;5036984;28;20493;-96
2021/01/06 10:08:42;;;;;;;2.50;1.80;;;;;;;;;;5029182;23;20491;-96
2021/01/06 10:11:14;;;;;;;2.33;1.63;;;;;;;;;;5015651;28;20443;-96
2021/01/06 10:13:58;;;;;;;1.80;1.70;;;;;;;;;;4995482;28;20991;-96
2021/01/06 10:16:31;;;;;;;2.80;1.90;;;;;;;;;;5016267;28;20469;-96
2021/01/06 10:19:08;;;;;;;1.97;1.70;;;;;;;;;;5016573;28;20442;-94
2021/01/06 10:21:38;;;;;;;2.10;1.40;;;;;;;;;;5012427;28;20439;-95
2021/01/06 10:24:20;;;;;;;1.80;1.63;;;;;;;;;;5012475;28;20529;-96
2021/01/06 10:26:55;;;;;;;3.00;1.57;;;;;;;;;;5010784;28;20475;-96
2021/01/06 10:29:35;;;;;;;1.70;1.60;;;;;;;;;;5018187;23;20517;-96
2021/01/06 10:32:03;;;;;;;3.53;2.50;;;;;;;;;;5012602;28;20463;-96
2021/01/06 10:34:32;;;;;;;2.53;1.80;;;;;;;;;;5016532;28;20434;-97
2021/01/06 10:37:11;;;;;;;2.50;1.87;;;;;;;;;;5015601;28;20478;-96
2021/01/06 10:39:39;;;;;;;2.10;1.90;;;;;;;;;;4995902;28;20452;-96
2021/01/06 10:42:18;;;;;;;2.30;1.60;;;;;;;;;;5012521;28;20451;-96
2021/01/06 10:44:50;;;;;;;2.60;2.23;;;;;;;;;;5008643;28;20450;-96
2021/01/06 10:47:28;;;;;;;4.33;2.10;;;;;;;;;;5008125;28;20460;-96
2021/01/06 10:49:56;;;;;;;3.27;2.30;;;;;;;;;;5029409;23;20508;-96
2021/01/06 10:52:33;;;;;;;1.73;1.63;;;;;;;;;;5029822;23;20891;-96
2021/01/06 10:55:18;;;;;;;2.80;1.90;;;;;;;;;;5022167;23;21665;-96
2021/01/06 10:58:02;;;;;;;3.10;1.90;;;;;;;;;;5015677;28;20495;-96
2021/01/06 11:00:45;;;;;;;2.20;2.10;;;;;;;;;;5014812;23;20538;-96
2021/01/06 11:03:23;;;;;;;2.07;1.90;;;;;;;;;;4982901;28;20464;-96
2021/01/06 11:06:16;;;;;;;1.90;1.80;;;;;;;;;;5019398;23;20936;-96
2021/01/06 11:08:50;;;;;;;1.97;1.80;;;;;;;;;;5031061;28;20443;-96
2021/01/06 11:11:31;;;;;;;1.80;1.70;;;;;;;;;;5016692;28;20426;-96
2021/01/06 11:14:24;;;;;;;4.43;2.20;;;;;;;;;;5007132;23;20490;-95
2021/01/06 11:16:52;;;;;;;4.10;2.10;;;;;;;;;;5012374;28;20462;-94
2021/01/06 11:19:37;;;;;;;2.37;2.17;;;;;;;;;;5008320;28;20444;-96
2021/01/06 11:24:50;;;;;;;2.53;2.00;;;;;;;;;;5004258;28;20449;-95
2021/01/06 11:27:39;;;;;;;1.90;1.80;;;;;;;;;;5025797;23;20498;-96
2021/01/06 11:30:18;;;;;;;1.73;1.63;;;;;;;;;;4996172;28;20470;-96
2021/01/06 11:32:57;;;;;;;1.77;1.67;;;;;;;;;;4993462;28;20478;-96
2021/01/06 11:35:25;;;;;;;2.77;1.73;;;;;;;;;;5009618;28;20492;-96
2021/01/06 11:37:53;;;;;;;6.40;1.80;;;;;;;;;;5009985;28;20487;-96
2021/01/06 11:40:40;;;;;;;1.93;1.67;;;;;;;;;;5049878;23;20520;-96
2021/01/06 11:43:22;;;;;;;3.17;1.70;;;;;;;;;;5120231;23;20575;-95
2021/01/06 11:45:49;;;;;;;1.63;1.53;;;;;;;;;;5008072;28;20494;-93
2021/01/06 11:48:30;;;;;;;4.10;1.70;;;;;;;;;;5009383;28;20427;-96
2021/01/06 11:51:17;;;;;;;3.00;1.70;;;;;;;;;;5010854;28;20459;-94
2021/01/06 11:53:44;;;;;;;1.70;1.60;;;;;;;;;;5004559;28;20888;-93
2021/01/06 11:56:15;;;;;;;2.10;1.60;;;;;;;;;;5010623;28;20455;-96
2021/01/06 11:59:03;;;;;;;2.33;1.60;;;;;;;;;;5004157;28;20456;-96
2021/01/06 12:01:46;;;;;;;2.20;1.80;;;;;;;;;;5005955;28;20459;-95
2021/01/06 12:04:26;;;;;;;2.03;1.50;;;;;;;;;;5003244;28;20456;-95
2021/01/06 12:09:36;;;;;;;4.00;1.60;;;;;;;;;;5012271;28;20502;-96
2021/01/06 12:12:17;;;;;;;4.30;1.77;;;;;;;;;;5013319;28;20550;-95
2021/01/06 12:14:53;;;;;;;1.30;1.20;;;;;;;;;;5013017;28;20483;-96
2021/01/06 12:17:27;;;;;;;2.20;2.00;;;;;;;;;;5014155;28;20468;-96
2021/01/06 12:19:57;;;;;;;2.03;1.60;;;;;;;;;;5033570;23;20532;-95
2021/01/06 12:25:49;;;;;;;1.93;1.70;;;;;;;;;;5022169;28;20458;-96
2021/01/06 12:28:27;;;;;;;3.57;2.33;;;;;;;;;;5035917;23;20496;-95
2021/01/06 12:31:13;;;;;;;2.33;1.50;;;;;;;;;;5064392;28;20470;-95
2021/01/06 12:33:45;;;;;;;2.13;1.93;;;;;;;;;;5030033;28;20515;-96
2021/01/06 12:36:21;;;;;;;1.90;1.60;;;;;;;;;;5059958;23;20496;-96
2021/01/06 12:38:49;;;;;;;3.30;1.50;;;;;;;;;;5012827;28;20482;-96
2021/01/06 12:41:19;;;;;;;1.30;1.20;;;;;;;;;;5016331;28;20472;-96
2021/01/06 12:43:48;;;;;;;1.73;1.63;;;;;;;;;;5010827;28;20485;-96
2021/01/06 12:46:28;;;;;;;2.93;1.47;;;;;;;;;;5011067;28;20445;-96
2021/01/06 12:49:01;;;;;;;4.30;2.30;;;;;;;;;;5013218;28;20467;-96
2021/01/06 12:51:29;;;;;;;1.83;1.50;;;;;;;;;;5024812;28;20465;-96
2021/01/06 12:53:58;;;;;;;4.20;1.63;;;;;;;;;;4999564;23;20508;-96
2021/01/06 12:56:28;;;;;;;2.23;1.70;;;;;;;;;;4991211;28;20452;-96
2021/01/06 12:59:03;;;;;;;2.20;1.50;;;;;;;;;;4988872;28;20448;-96
2021/01/06 13:01:33;;;;;;;2.20;1.60;;;;;;;;;;4989146;28;20472;-96
2021/01/06 13:04:03;;;;;;;3.50;2.30;;;;;;;;;;4987974;28;20456;-96
2021/01/06 13:06:35;;;;;;;1.80;1.70;;;;;;;;;;4993766;28;20430;-95
2021/01/06 13:09:05;;;;;;;3.37;1.83;;;;;;;;;;4995744;28;20441;-96
2021/01/06 13:11:51;;;;;;;3.73;1.70;;;;;;;;;;4975149;28;20464;-96
2021/01/06 13:14:21;;;;;;;2.20;1.70;;;;;;;;;;4978508;28;20500;-95
2021/01/06 13:16:54;;;;;;;2.20;1.90;;;;;;;;;;5023927;23;20913;-96
2021/01/06 13:19:26;;;;;;;1.70;1.60;;;;;;;;;;5017489;28;20454;-96
2021/01/06 13:22:05;;;;;;;3.70;1.83;;;;;;;;;;5032606;23;20463;-96
2021/01/06 13:24:33;;;;;;;2.83;1.90;;;;;;;;;;5010863;28;20442;-96
2021/01/06 13:27:00;;;;;;;3.07;1.70;;;;;;;;;;5007216;28;20458;-96
2021/01/06 13:29:32;;;;;;;1.60;1.50;;;;;;;;;;5021481;28;20466;-96
2021/01/06 13:32:07;;;;;;;3.53;1.37;;;;;;;;;;5016445;28;20466;-96
2021/01/06 13:34:34;;;;;;;2.17;1.60;;;;;;;;;;5008159;28;20439;-96
2021/01/06 13:37:03;;;;;;;2.63;1.47;;;;;;;;;;4998255;28;20485;-95
2021/01/06 13:39:34;;;;;;;4.50;1.70;;;;;;;;;;5003421;28;20483;-96
2021/01/06 13:42:04;;;;;;;3.70;1.67;;;;;;;;;;5022289;23;20494;-95
2021/01/06 13:44:33;;;;;;;2.33;1.50;;;;;;;;;;5028487;28;20443;-96
2021/01/06 13:47:05;;;;;;;3.53;1.60;;;;;;;;;;5023437;28;20461;-94
2021/01/06 13:49:37;;;;;;;5.53;1.50;;;;;;;;;;5038839;22;20511;-96
2021/01/06 13:52:05;;;;;;;3.30;1.60;;;;;;;;;;5010544;28;20442;-95
2021/01/06 13:54:50;;;;;;;2.53;1.70;;;;;;;;;;5011395;28;20431;-95
2021/01/06 13:57:20;;;;;;;2.10;1.57;;;;;;;;;;5008177;28;20486;-96
2021/01/06 13:59:49;;;;;;;2.97;1.77;;;;;;;;;;5012250;28;20459;-94
2021/01/06 14:02:23;;;;;;;1.70;1.60;;;;;;;;;;5010708;28;20465;-95
2021/01/06 14:04:53;;;;;;;5.70;1.70;;;;;;;;;;5008597;28;20497;-96
2021/01/06 14:07:40;;;;;;;1.80;1.70;;;;;;;;;;5012289;28;20435;-96
2021/01/06 14:10:17;;;;;;;3.03;1.60;;;;;;;;;;5005836;28;20703;-94
2021/01/06 14:12:51;;;;;;;2.90;1.63;;;;;;;;;;5003650;28;20443;-96
2021/01/06 14:15:29;;;;;;;4.90;1.80;;;;;;;;;;5002398;28;20464;-94
2021/01/06 14:18:13;;;;;;;2.63;1.83;;;;;;;;;;5006333;28;20494;-95
2021/01/06 14:20:48;;;;;;;4.50;1.53;;;;;;;;;;5006075;28;20459;-95
2021/01/06 14:23:19;;;;;;;1.77;1.67;;;;;;;;;;5013124;28;20529;-96
2021/01/06 14:26:04;;;;;;;2.40;1.90;;;;;;;;;;5011072;28;20571;-95
2021/01/06 14:28:40;;;;;;;1.93;1.70;;;;;;;;;;5010220;28;20474;-96
2021/01/06 14:31:13;;;;;;;4.67;1.77;;;;;;;;;;5006695;28;20458;-94
2021/01/06 14:33:46;;;;;;;3.23;2.17;;;;;;;;;;5008527;28;20475;-95
2021/01/06 14:36:16;;;;;;;1.97;1.60;;;;;;;;;;5008252;28;20445;-96
2021/01/06 14:38:54;;;;;;;3.50;1.80;;;;;;;;;;5007870;28;20516;-96
2021/01/06 14:41:37;;;;;;;1.93;1.47;;;;;;;;;;5012425;28;20470;-95
2021/01/06 14:44:18;;;;;;;2.60;1.97;;;;;;;;;;5011235;28;20452;-94
2021/01/06 14:46:58;;;;;;;4.90;1.93;;;;;;;;;;5005865;28;20474;-94
2021/01/06 14:49:29;;;;;;;3.13;1.97;;;;;;;;;;5002992;28;20482;-94
2021/01/06 14:52:02;;;;;;;5.30;2.10;;;;;;;;;;5005849;28;21010;-93
2021/01/06 14:54:39;;;;;;;2.10;2.00;;;;;;;;;;4998965;28;20469;-91
2021/01/06 14:57:21;;;;;;;4.00;2.33;;;;;;;;;;5004200;28;20545;-96
2021/01/06 14:59:57;;;;;;;6.87;3.93;;;;;;;;;;5003334;28;20485;-93
2021/01/06 15:02:27;;;;;;;6.77;5.00;;;;;;;;;;4985422;28;21030;-93
2021/01/06 15:05:08;;;;;;;7.93;7.30;;;;;;;;;;4997196;28;20461;-94
2021/01/06 15:07:37;;;;;;;3.47;3.17;;;;;;;;;;5003940;28;20470;-96
2021/01/06 15:10:10;;;;;;;4.57;4.07;;;;;;;;;;5000792;28;20465;-93
2021/01/06 15:12:38;;;;;;;11.37;10.17;;;;;;;;;;5003849;28;20905;-93
2021/01/06 15:15:08;;;;;;;4.30;2.60;;;;;;;;;;5004395;28;20437;-96